sensor_id;sensor_type;location;lat;lon;timestamp;P1;durP1;ratioP1;P2;durP2;ratioP2
21360;SDS011;10839;43.206;23.550;2022-10-16T00:01:15;3.50;;;2.47;;
21360;SDS011;10839;43.206;23.550;2022-10-16T00:03:43;3.20;;;2.25;;
21360;SDS011;10839;43.206;23.550;2022-10-16T00:06:11;5.22;;;2.75;;
21360;SDS011;10839;43.206;23.550;2022-10-16T00:08:39;5.13;;;2.90;;
21360;SDS011;10839;43.206;23.550;2022-10-16T00:11:15;4.38;;;3.10;;
21360;SDS011;10839;43.206;23.550;2022-10-16T00:13:42;3.92;;;2.63;;
21360;SDS011;10839;43.206;23.550;2022-10-16T00:16:09;3.53;;;2.78;;
21360;SDS011;10839;43.206;23.550;2022-10-16T00:18:36;4.07;;;2.75;;
21360;SDS011;10839;43.206;23.550;2022-10-16T00:21:04;4.82;;;2.90;;
21360;SDS011;10839;43.206;23.550;2022-10-16T00:23:36;3.30;;;2.60;;
21360;SDS011;10839;43.206;23.550;2022-10-16T00:26:04;6.78;;;2.72;;
21360;SDS011;10839;43.206;23.550;2022-10-16T00:28:32;5.63;;;2.50;;
21360;SDS011;10839;43.206;23.550;2022-10-16T00:31:07;4.70;;;2.50;;
21360;SDS011;10839;43.206;23.550;2022-10-16T00:33:35;4.82;;;2.40;;
21360;SDS011;10839;43.206;23.550;2022-10-16T00:36:03;3.70;;;2.45;;
21360;SDS011;10839;43.206;23.550;2022-10-16T00:38:31;4.25;;;2.85;;
21360;SDS011;10839;43.206;23.550;2022-10-16T00:40:59;3.17;;;2.60;;
21360;SDS011;10839;43.206;23.550;2022-10-16T00:43:45;13.65;;;4.47;;
21360;SDS011;10839;43.206;23.550;2022-10-16T00:46:22;5.13;;;3.45;;
21360;SDS011;10839;43.206;23.550;2022-10-16T00:51:45;7.45;;;3.72;;
21360;SDS011;10839;43.206;23.550;2022-10-16T00:54:14;4.95;;;3.10;;
21360;SDS011;10839;43.206;23.550;2022-10-16T00:56:45;5.97;;;3.67;;
21360;SDS011;10839;43.206;23.550;2022-10-16T00:59:14;7.00;;;3.83;;
21360;SDS011;10839;43.206;23.550;2022-10-16T01:01:43;4.32;;;3.05;;
21360;SDS011;10839;43.206;23.550;2022-10-16T01:04:09;4.35;;;3.38;;
21360;SDS011;10839;43.206;23.550;2022-10-16T01:06:36;8.48;;;3.72;;
21360;SDS011;10839;43.206;23.550;2022-10-16T01:09:17;4.32;;;3.65;;
21360;SDS011;10839;43.206;23.550;2022-10-16T01:11:53;7.05;;;3.97;;
21360;SDS011;10839;43.206;23.550;2022-10-16T01:14:48;7.35;;;4.63;;
21360;SDS011;10839;43.206;23.550;2022-10-16T01:28:05;10.00;;;5.55;;
21360;SDS011;10839;43.206;23.550;2022-10-16T01:30:37;6.43;;;4.95;;
21360;SDS011;10839;43.206;23.550;2022-10-16T01:33:10;9.88;;;5.43;;
21360;SDS011;10839;43.206;23.550;2022-10-16T01:36:02;10.50;;;5.43;;
21360;SDS011;10839;43.206;23.550;2022-10-16T01:38:35;10.27;;;4.50;;
21360;SDS011;10839;43.206;23.550;2022-10-16T01:41:14;6.95;;;4.60;;
21360;SDS011;10839;43.206;23.550;2022-10-16T01:43:49;6.78;;;4.45;;
21360;SDS011;10839;43.206;23.550;2022-10-16T01:46:36;9.88;;;5.88;;
21360;SDS011;10839;43.206;23.550;2022-10-16T01:49:06;6.25;;;4.47;;
21360;SDS011;10839;43.206;23.550;2022-10-16T01:51:33;7.45;;;5.35;;
21360;SDS011;10839;43.206;23.550;2022-10-16T01:54:02;10.57;;;4.78;;
21360;SDS011;10839;43.206;23.550;2022-10-16T01:56:32;5.38;;;4.22;;
21360;SDS011;10839;43.206;23.550;2022-10-16T01:59:07;8.15;;;4.75;;
21360;SDS011;10839;43.206;23.550;2022-10-16T02:01:38;7.75;;;4.80;;
21360;SDS011;10839;43.206;23.550;2022-10-16T02:04:13;6.65;;;4.93;;
21360;SDS011;10839;43.206;23.550;2022-10-16T02:06:48;8.15;;;5.30;;
21360;SDS011;10839;43.206;23.550;2022-10-16T02:09:14;10.80;;;5.30;;
21360;SDS011;10839;43.206;23.550;2022-10-16T02:11:42;8.48;;;5.30;;
21360;SDS011;10839;43.206;23.550;2022-10-16T02:14:09;6.65;;;5.22;;
21360;SDS011;10839;43.206;23.550;2022-10-16T02:16:36;12.38;;;5.72;;
21360;SDS011;10839;43.206;23.550;2022-10-16T02:19:05;8.98;;;5.60;;
21360;SDS011;10839;43.206;23.550;2022-10-16T02:21:47;7.88;;;5.57;;
21360;SDS011;10839;43.206;23.550;2022-10-16T02:30:25;10.45;;;6.20;;
21360;SDS011;10839;43.206;23.550;2022-10-16T02:32:51;10.25;;;5.97;;
21360;SDS011;10839;43.206;23.550;2022-10-16T02:35:19;10.80;;;5.70;;
21360;SDS011;10839;43.206;23.550;2022-10-16T02:37:47;8.48;;;5.10;;
21360;SDS011;10839;43.206;23.550;2022-10-16T02:40:15;8.00;;;5.03;;
21360;SDS011;10839;43.206;23.550;2022-10-16T02:42:43;9.13;;;4.72;;
21360;SDS011;10839;43.206;23.550;2022-10-16T02:45:09;10.35;;;5.57;;
21360;SDS011;10839;43.206;23.550;2022-10-16T02:47:37;14.40;;;5.07;;
21360;SDS011;10839;43.206;23.550;2022-10-16T02:50:03;9.40;;;5.30;;
21360;SDS011;10839;43.206;23.550;2022-10-16T02:52:30;7.28;;;4.93;;
21360;SDS011;10839;43.206;23.550;2022-10-16T02:54:56;12.82;;;5.30;;
21360;SDS011;10839;43.206;23.550;2022-10-16T02:57:22;8.68;;;5.13;;
21360;SDS011;10839;43.206;23.550;2022-10-16T02:59:47;7.25;;;5.22;;
21360;SDS011;10839;43.206;23.550;2022-10-16T03:02:13;10.13;;;5.38;;
21360;SDS011;10839;43.206;23.550;2022-10-16T03:04:40;9.80;;;5.65;;
21360;SDS011;10839;43.206;23.550;2022-10-16T03:07:06;9.50;;;5.68;;
21360;SDS011;10839;43.206;23.550;2022-10-16T03:09:33;9.05;;;6.15;;
21360;SDS011;10839;43.206;23.550;2022-10-16T03:11:59;8.60;;;5.85;;
21360;SDS011;10839;43.206;23.550;2022-10-16T03:14:25;12.15;;;5.88;;
21360;SDS011;10839;43.206;23.550;2022-10-16T03:16:51;12.82;;;6.43;;
21360;SDS011;10839;43.206;23.550;2022-10-16T03:19:18;8.30;;;6.10;;
21360;SDS011;10839;43.206;23.550;2022-10-16T03:21:44;9.30;;;6.07;;
21360;SDS011;10839;43.206;23.550;2022-10-16T03:24:10;9.88;;;5.93;;
21360;SDS011;10839;43.206;23.550;2022-10-16T03:26:36;8.85;;;5.68;;
21360;SDS011;10839;43.206;23.550;2022-10-16T03:29:02;12.10;;;6.60;;
21360;SDS011;10839;43.206;23.550;2022-10-16T03:31:29;8.77;;;6.35;;
21360;SDS011;10839;43.206;23.550;2022-10-16T03:33:56;8.85;;;6.55;;
21360;SDS011;10839;43.206;23.550;2022-10-16T03:36:22;8.90;;;6.72;;
21360;SDS011;10839;43.206;23.550;2022-10-16T03:38:49;9.18;;;5.93;;
21360;SDS011;10839;43.206;23.550;2022-10-16T03:41:15;9.73;;;6.43;;
21360;SDS011;10839;43.206;23.550;2022-10-16T03:43:41;7.97;;;6.10;;
21360;SDS011;10839;43.206;23.550;2022-10-16T03:46:07;12.18;;;6.82;;
21360;SDS011;10839;43.206;23.550;2022-10-16T03:48:34;10.55;;;5.93;;
21360;SDS011;10839;43.206;23.550;2022-10-16T03:51:00;9.45;;;6.00;;
21360;SDS011;10839;43.206;23.550;2022-10-16T03:53:25;8.50;;;5.88;;
21360;SDS011;10839;43.206;23.550;2022-10-16T03:55:51;10.07;;;5.63;;
21360;SDS011;10839;43.206;23.550;2022-10-16T03:58:17;11.50;;;6.15;;
21360;SDS011;10839;43.206;23.550;2022-10-16T04:00:45;11.85;;;6.43;;
21360;SDS011;10839;43.206;23.550;2022-10-16T04:03:12;12.40;;;6.07;;
21360;SDS011;10839;43.206;23.550;2022-10-16T04:05:39;10.80;;;6.63;;
21360;SDS011;10839;43.206;23.550;2022-10-16T04:08:05;11.50;;;5.90;;
21360;SDS011;10839;43.206;23.550;2022-10-16T04:10:31;12.55;;;6.10;;
21360;SDS011;10839;43.206;23.550;2022-10-16T04:12:57;9.25;;;5.75;;
21360;SDS011;10839;43.206;23.550;2022-10-16T04:15:23;8.43;;;5.65;;
21360;SDS011;10839;43.206;23.550;2022-10-16T04:17:51;14.45;;;7.13;;
21360;SDS011;10839;43.206;23.550;2022-10-16T04:20:17;8.32;;;6.32;;
21360;SDS011;10839;43.206;23.550;2022-10-16T04:22:44;11.20;;;5.70;;
21360;SDS011;10839;43.206;23.550;2022-10-16T04:25:10;10.55;;;5.57;;
21360;SDS011;10839;43.206;23.550;2022-10-16T04:27:37;8.70;;;5.22;;
21360;SDS011;10839;43.206;23.550;2022-10-16T04:30:04;12.13;;;5.80;;
21360;SDS011;10839;43.206;23.550;2022-10-16T04:32:32;10.88;;;6.30;;
21360;SDS011;10839;43.206;23.550;2022-10-16T04:34:58;8.13;;;5.47;;
21360;SDS011;10839;43.206;23.550;2022-10-16T04:37:25;8.32;;;5.43;;
21360;SDS011;10839;43.206;23.550;2022-10-16T04:39:52;7.45;;;4.75;;
21360;SDS011;10839;43.206;23.550;2022-10-16T04:42:19;7.28;;;5.45;;
21360;SDS011;10839;43.206;23.550;2022-10-16T04:44:46;9.50;;;5.03;;
21360;SDS011;10839;43.206;23.550;2022-10-16T04:47:12;8.27;;;5.45;;
21360;SDS011;10839;43.206;23.550;2022-10-16T04:49:39;6.20;;;4.95;;
21360;SDS011;10839;43.206;23.550;2022-10-16T04:52:05;8.52;;;4.80;;
21360;SDS011;10839;43.206;23.550;2022-10-16T04:54:31;9.07;;;4.97;;
21360;SDS011;10839;43.206;23.550;2022-10-16T04:56:57;9.75;;;5.28;;
21360;SDS011;10839;43.206;23.550;2022-10-16T04:59:23;9.65;;;4.95;;
21360;SDS011;10839;43.206;23.550;2022-10-16T05:01:49;8.48;;;4.70;;
21360;SDS011;10839;43.206;23.550;2022-10-16T05:04:15;6.60;;;4.20;;
21360;SDS011;10839;43.206;23.550;2022-10-16T05:06:42;6.55;;;4.25;;
21360;SDS011;10839;43.206;23.550;2022-10-16T05:09:08;4.82;;;3.53;;
21360;SDS011;10839;43.206;23.550;2022-10-16T05:11:35;8.10;;;4.15;;
21360;SDS011;10839;43.206;23.550;2022-10-16T05:14:02;6.15;;;3.97;;
21360;SDS011;10839;43.206;23.550;2022-10-16T05:16:28;5.05;;;3.45;;
21360;SDS011;10839;43.206;23.550;2022-10-16T05:18:55;8.32;;;3.58;;
21360;SDS011;10839;43.206;23.550;2022-10-16T05:21:21;6.05;;;3.55;;
21360;SDS011;10839;43.206;23.550;2022-10-16T05:23:47;4.75;;;3.78;;
21360;SDS011;10839;43.206;23.550;2022-10-16T05:26:13;5.32;;;2.97;;
21360;SDS011;10839;43.206;23.550;2022-10-16T05:28:39;7.10;;;3.63;;
21360;SDS011;10839;43.206;23.550;2022-10-16T05:31:05;4.85;;;3.28;;
21360;SDS011;10839;43.206;23.550;2022-10-16T05:33:33;5.60;;;3.10;;
21360;SDS011;10839;43.206;23.550;2022-10-16T05:36:05;5.78;;;3.22;;
21360;SDS011;10839;43.206;23.550;2022-10-16T05:38:34;7.10;;;2.85;;
21360;SDS011;10839;43.206;23.550;2022-10-16T05:41:01;5.88;;;2.90;;
21360;SDS011;10839;43.206;23.550;2022-10-16T05:43:29;3.45;;;2.92;;
21360;SDS011;10839;43.206;23.550;2022-10-16T05:46:14;4.20;;;2.85;;
21360;SDS011;10839;43.206;23.550;2022-10-16T05:48:41;5.82;;;3.42;;
21360;SDS011;10839;43.206;23.550;2022-10-16T05:51:08;4.13;;;3.17;;
21360;SDS011;10839;43.206;23.550;2022-10-16T05:53:37;4.50;;;2.95;;
21360;SDS011;10839;43.206;23.550;2022-10-16T05:56:06;7.95;;;4.25;;
21360;SDS011;10839;43.206;23.550;2022-10-16T05:58:35;5.45;;;3.60;;
21360;SDS011;10839;43.206;23.550;2022-10-16T06:01:04;3.45;;;3.10;;
21360;SDS011;10839;43.206;23.550;2022-10-16T06:03:33;4.20;;;2.95;;
21360;SDS011;10839;43.206;23.550;2022-10-16T06:06:06;4.57;;;3.22;;
21360;SDS011;10839;43.206;23.550;2022-10-16T06:08:36;4.35;;;3.05;;
21360;SDS011;10839;43.206;23.550;2022-10-16T06:11:03;4.38;;;3.13;;
21360;SDS011;10839;43.206;23.550;2022-10-16T06:13:31;3.42;;;2.75;;
21360;SDS011;10839;43.206;23.550;2022-10-16T06:15:58;4.70;;;3.17;;
21360;SDS011;10839;43.206;23.550;2022-10-16T06:18:26;6.22;;;4.18;;
21360;SDS011;10839;43.206;23.550;2022-10-16T06:20:53;4.90;;;3.00;;
21360;SDS011;10839;43.206;23.550;2022-10-16T06:23:20;4.60;;;3.22;;
21360;SDS011;10839;43.206;23.550;2022-10-16T06:25:46;4.32;;;3.08;;
21360;SDS011;10839;43.206;23.550;2022-10-16T06:28:13;5.20;;;3.38;;
21360;SDS011;10839;43.206;23.550;2022-10-16T06:30:41;4.25;;;2.55;;
21360;SDS011;10839;43.206;23.550;2022-10-16T06:33:10;5.20;;;3.20;;
21360;SDS011;10839;43.206;23.550;2022-10-16T06:35:36;3.85;;;2.30;;
21360;SDS011;10839;43.206;23.550;2022-10-16T06:38:03;3.13;;;2.53;;
21360;SDS011;10839;43.206;23.550;2022-10-16T06:40:29;6.47;;;2.63;;
21360;SDS011;10839;43.206;23.550;2022-10-16T06:42:55;3.03;;;2.50;;
21360;SDS011;10839;43.206;23.550;2022-10-16T06:45:21;4.47;;;2.50;;
21360;SDS011;10839;43.206;23.550;2022-10-16T06:47:47;2.75;;;2.30;;
21360;SDS011;10839;43.206;23.550;2022-10-16T06:50:13;2.85;;;2.53;;
21360;SDS011;10839;43.206;23.550;2022-10-16T06:52:39;4.50;;;2.65;;
21360;SDS011;10839;43.206;23.550;2022-10-16T06:55:05;2.58;;;2.08;;
21360;SDS011;10839;43.206;23.550;2022-10-16T06:57:33;4.38;;;3.55;;
21360;SDS011;10839;43.206;23.550;2022-10-16T06:59:59;7.70;;;3.17;;
21360;SDS011;10839;43.206;23.550;2022-10-16T07:02:26;3.80;;;2.25;;
21360;SDS011;10839;43.206;23.550;2022-10-16T07:04:52;3.28;;;2.42;;
21360;SDS011;10839;43.206;23.550;2022-10-16T07:07:18;3.15;;;2.40;;
21360;SDS011;10839;43.206;23.550;2022-10-16T07:09:44;3.55;;;2.72;;
21360;SDS011;10839;43.206;23.550;2022-10-16T07:12:10;4.90;;;2.47;;
21360;SDS011;10839;43.206;23.550;2022-10-16T07:14:37;6.80;;;2.40;;
21360;SDS011;10839;43.206;23.550;2022-10-16T07:17:02;2.80;;;2.13;;
21360;SDS011;10839;43.206;23.550;2022-10-16T07:19:28;2.47;;;2.10;;
21360;SDS011;10839;43.206;23.550;2022-10-16T07:21:54;6.35;;;2.25;;
21360;SDS011;10839;43.206;23.550;2022-10-16T07:24:21;4.60;;;2.83;;
21360;SDS011;10839;43.206;23.550;2022-10-16T07:26:47;4.32;;;2.38;;
21360;SDS011;10839;43.206;23.550;2022-10-16T07:29:17;5.03;;;2.85;;
21360;SDS011;10839;43.206;23.550;2022-10-16T07:31:45;4.10;;;2.88;;
21360;SDS011;10839;43.206;23.550;2022-10-16T07:34:11;5.13;;;2.97;;
21360;SDS011;10839;43.206;23.550;2022-10-16T07:36:39;3.50;;;2.85;;
21360;SDS011;10839;43.206;23.550;2022-10-16T07:39:05;3.92;;;3.38;;
21360;SDS011;10839;43.206;23.550;2022-10-16T07:41:31;4.10;;;2.67;;
21360;SDS011;10839;43.206;23.550;2022-10-16T07:43:58;4.57;;;2.80;;
21360;SDS011;10839;43.206;23.550;2022-10-16T07:46:26;4.60;;;2.95;;
21360;SDS011;10839;43.206;23.550;2022-10-16T07:48:52;4.63;;;3.30;;
21360;SDS011;10839;43.206;23.550;2022-10-16T07:51:19;5.75;;;3.55;;
21360;SDS011;10839;43.206;23.550;2022-10-16T07:53:47;4.05;;;3.15;;
21360;SDS011;10839;43.206;23.550;2022-10-16T07:56:13;4.72;;;2.92;;
21360;SDS011;10839;43.206;23.550;2022-10-16T07:58:41;4.28;;;2.97;;
21360;SDS011;10839;43.206;23.550;2022-10-16T08:01:10;5.65;;;3.38;;
21360;SDS011;10839;43.206;23.550;2022-10-16T08:03:41;4.93;;;3.10;;
21360;SDS011;10839;43.206;23.550;2022-10-16T08:06:07;4.35;;;3.05;;
21360;SDS011;10839;43.206;23.550;2022-10-16T08:08:33;4.32;;;2.88;;
21360;SDS011;10839;43.206;23.550;2022-10-16T08:11:00;3.50;;;2.80;;
21360;SDS011;10839;43.206;23.550;2022-10-16T08:13:29;5.90;;;3.38;;
21360;SDS011;10839;43.206;23.550;2022-10-16T08:15:56;5.55;;;3.60;;
21360;SDS011;10839;43.206;23.550;2022-10-16T08:18:22;5.55;;;3.40;;
21360;SDS011;10839;43.206;23.550;2022-10-16T08:20:54;4.15;;;2.83;;
21360;SDS011;10839;43.206;23.550;2022-10-16T08:23:22;5.25;;;3.08;;
21360;SDS011;10839;43.206;23.550;2022-10-16T08:25:48;6.45;;;3.40;;
21360;SDS011;10839;43.206;23.550;2022-10-16T08:28:14;5.70;;;3.40;;
21360;SDS011;10839;43.206;23.550;2022-10-16T08:30:42;4.00;;;3.08;;
21360;SDS011;10839;43.206;23.550;2022-10-16T08:33:08;3.90;;;2.67;;
21360;SDS011;10839;43.206;23.550;2022-10-16T08:35:33;5.93;;;3.42;;
21360;SDS011;10839;43.206;23.550;2022-10-16T08:37:59;4.63;;;2.90;;
21360;SDS011;10839;43.206;23.550;2022-10-16T08:40:26;3.67;;;2.58;;
21360;SDS011;10839;43.206;23.550;2022-10-16T08:46:02;5.57;;;3.53;;
21360;SDS011;10839;43.206;23.550;2022-10-16T08:48:52;5.28;;;3.10;;
21360;SDS011;10839;43.206;23.550;2022-10-16T08:53:53;6.63;;;2.97;;
21360;SDS011;10839;43.206;23.550;2022-10-16T08:56:22;5.38;;;3.65;;
21360;SDS011;10839;43.206;23.550;2022-10-16T08:58:51;4.68;;;3.20;;
21360;SDS011;10839;43.206;23.550;2022-10-16T09:01:20;4.80;;;3.28;;
21360;SDS011;10839;43.206;23.550;2022-10-16T09:03:58;6.97;;;3.60;;
21360;SDS011;10839;43.206;23.550;2022-10-16T09:17:38;6.72;;;3.38;;
21360;SDS011;10839;43.206;23.550;2022-10-16T09:23:00;5.60;;;3.70;;
21360;SDS011;10839;43.206;23.550;2022-10-16T09:25:32;4.97;;;3.47;;
21360;SDS011;10839;43.206;23.550;2022-10-16T09:28:00;5.05;;;3.75;;
21360;SDS011;10839;43.206;23.550;2022-10-16T09:30:27;6.15;;;3.88;;
21360;SDS011;10839;43.206;23.550;2022-10-16T09:32:55;5.72;;;3.60;;
21360;SDS011;10839;43.206;23.550;2022-10-16T09:35:31;5.75;;;3.55;;
21360;SDS011;10839;43.206;23.550;2022-10-16T09:38:01;5.18;;;3.83;;
21360;SDS011;10839;43.206;23.550;2022-10-16T09:40:29;5.75;;;3.63;;
21360;SDS011;10839;43.206;23.550;2022-10-16T09:46:00;5.25;;;3.35;;
21360;SDS011;10839;43.206;23.550;2022-10-16T09:48:43;3.80;;;2.88;;
21360;SDS011;10839;43.206;23.550;2022-10-16T09:51:18;7.65;;;3.67;;
21360;SDS011;10839;43.206;23.550;2022-10-16T09:53:48;4.43;;;3.15;;
21360;SDS011;10839;43.206;23.550;2022-10-16T09:56:21;6.60;;;3.05;;
21360;SDS011;10839;43.206;23.550;2022-10-16T10:01:35;4.50;;;2.80;;
21360;SDS011;10839;43.206;23.550;2022-10-16T10:04:04;4.75;;;3.67;;
21360;SDS011;10839;43.206;23.550;2022-10-16T10:06:31;5.30;;;3.10;;
21360;SDS011;10839;43.206;23.550;2022-10-16T10:09:16;6.28;;;3.17;;
21360;SDS011;10839;43.206;23.550;2022-10-16T10:11:51;8.35;;;3.42;;
21360;SDS011;10839;43.206;23.550;2022-10-16T10:16:43;5.07;;;2.92;;
21360;SDS011;10839;43.206;23.550;2022-10-16T10:22:16;5.75;;;3.53;;
21360;SDS011;10839;43.206;23.550;2022-10-16T10:24:55;6.72;;;3.72;;
21360;SDS011;10839;43.206;23.550;2022-10-16T10:27:22;5.75;;;3.38;;
21360;SDS011;10839;43.206;23.550;2022-10-16T10:30:02;4.82;;;3.25;;
21360;SDS011;10839;43.206;23.550;2022-10-16T10:32:47;5.53;;;3.65;;
21360;SDS011;10839;43.206;23.550;2022-10-16T10:35:22;5.25;;;3.50;;
21360;SDS011;10839;43.206;23.550;2022-10-16T10:46:23;5.97;;;3.50;;
21360;SDS011;10839;43.206;23.550;2022-10-16T10:57:16;6.25;;;3.90;;
21360;SDS011;10839;43.206;23.550;2022-10-16T11:07:52;4.10;;;3.20;;
21360;SDS011;10839;43.206;23.550;2022-10-16T11:10:25;4.22;;;3.10;;
21360;SDS011;10839;43.206;23.550;2022-10-16T11:13:57;6.45;;;4.00;;
21360;SDS011;10839;43.206;23.550;2022-10-16T11:15:58;3.22;;;2.92;;
21360;SDS011;10839;43.206;23.550;2022-10-16T11:18:49;3.47;;;2.88;;
21360;SDS011;10839;43.206;23.550;2022-10-16T11:21:24;5.70;;;2.88;;
21360;SDS011;10839;43.206;23.550;2022-10-16T11:23:56;5.70;;;3.17;;
21360;SDS011;10839;43.206;23.550;2022-10-16T11:26:36;5.22;;;3.30;;
21360;SDS011;10839;43.206;23.550;2022-10-16T11:29:13;5.47;;;3.28;;
21360;SDS011;10839;43.206;23.550;2022-10-16T11:31:57;3.88;;;2.92;;
21360;SDS011;10839;43.206;23.550;2022-10-16T11:34:42;4.50;;;3.33;;
21360;SDS011;10839;43.206;23.550;2022-10-16T11:37:21;4.63;;;2.90;;
21360;SDS011;10839;43.206;23.550;2022-10-16T11:45:45;7.05;;;4.55;;
21360;SDS011;10839;43.206;23.550;2022-10-16T11:48:27;8.18;;;4.78;;
21360;SDS011;10839;43.206;23.550;2022-10-16T11:56:29;5.68;;;3.20;;
21360;SDS011;10839;43.206;23.550;2022-10-16T12:01:35;5.40;;;4.00;;
21360;SDS011;10839;43.206;23.550;2022-10-16T12:04:14;10.43;;;6.65;;
21360;SDS011;10839;43.206;23.550;2022-10-16T12:06:55;6.47;;;4.38;;
21360;SDS011;10839;43.206;23.550;2022-10-16T12:09:27;5.82;;;3.80;;
21360;SDS011;10839;43.206;23.550;2022-10-16T12:11:56;10.85;;;4.63;;
21360;SDS011;10839;43.206;23.550;2022-10-16T12:14:32;5.20;;;3.20;;
21360;SDS011;10839;43.206;23.550;2022-10-16T12:17:04;6.47;;;3.35;;
21360;SDS011;10839;43.206;23.550;2022-10-16T12:20:00;7.40;;;3.47;;
21360;SDS011;10839;43.206;23.550;2022-10-16T12:22:47;5.53;;;3.30;;
21360;SDS011;10839;43.206;23.550;2022-10-16T12:27:54;4.53;;;3.20;;
21360;SDS011;10839;43.206;23.550;2022-10-16T12:30:22;6.95;;;4.32;;
21360;SDS011;10839;43.206;23.550;2022-10-16T12:32:54;3.90;;;2.90;;
21360;SDS011;10839;43.206;23.550;2022-10-16T12:35:27;5.50;;;3.35;;
21360;SDS011;10839;43.206;23.550;2022-10-16T12:38:57;4.50;;;3.03;;
21360;SDS011;10839;43.206;23.550;2022-10-16T12:41:04;5.40;;;3.28;;
21360;SDS011;10839;43.206;23.550;2022-10-16T12:43:43;5.07;;;3.75;;
21360;SDS011;10839;43.206;23.550;2022-10-16T12:48:38;3.97;;;3.05;;
21360;SDS011;10839;43.206;23.550;2022-10-16T12:51:10;5.32;;;3.45;;
21360;SDS011;10839;43.206;23.550;2022-10-16T12:53:36;3.83;;;2.72;;
21360;SDS011;10839;43.206;23.550;2022-10-16T12:56:25;5.25;;;3.10;;
21360;SDS011;10839;43.206;23.550;2022-10-16T12:59:12;5.20;;;2.88;;
21360;SDS011;10839;43.206;23.550;2022-10-16T13:04:46;5.88;;;3.70;;
21360;SDS011;10839;43.206;23.550;2022-10-16T13:07:59;6.20;;;3.50;;
21360;SDS011;10839;43.206;23.550;2022-10-16T13:13:44;9.73;;;5.65;;
21360;SDS011;10839;43.206;23.550;2022-10-16T13:22:17;8.48;;;5.55;;
21360;SDS011;10839;43.206;23.550;2022-10-16T13:24:49;4.65;;;3.50;;
21360;SDS011;10839;43.206;23.550;2022-10-16T13:30:23;7.75;;;4.68;;
21360;SDS011;10839;43.206;23.550;2022-10-16T13:33:00;8.18;;;4.43;;
21360;SDS011;10839;43.206;23.550;2022-10-16T13:35:34;5.28;;;3.42;;
21360;SDS011;10839;43.206;23.550;2022-10-16T13:40:36;9.38;;;5.10;;
21360;SDS011;10839;43.206;23.550;2022-10-16T13:43:12;5.88;;;3.28;;
21360;SDS011;10839;43.206;23.550;2022-10-16T13:45:52;3.80;;;2.70;;
21360;SDS011;10839;43.206;23.550;2022-10-16T13:48:19;4.47;;;2.80;;
21360;SDS011;10839;43.206;23.550;2022-10-16T13:50:44;3.80;;;3.08;;
21360;SDS011;10839;43.206;23.550;2022-10-16T13:53:14;4.45;;;2.40;;
21360;SDS011;10839;43.206;23.550;2022-10-16T13:55:40;22.10;;;11.80;;
21360;SDS011;10839;43.206;23.550;2022-10-16T13:58:13;4.35;;;2.85;;
21360;SDS011;10839;43.206;23.550;2022-10-16T14:00:41;4.68;;;2.53;;
21360;SDS011;10839;43.206;23.550;2022-10-16T14:03:23;3.95;;;2.78;;
21360;SDS011;10839;43.206;23.550;2022-10-16T14:06:33;4.15;;;2.50;;
21360;SDS011;10839;43.206;23.550;2022-10-16T14:08:44;4.90;;;2.30;;
21360;SDS011;10839;43.206;23.550;2022-10-16T14:11:19;4.45;;;2.65;;
21360;SDS011;10839;43.206;23.550;2022-10-16T14:13:48;4.25;;;2.58;;
21360;SDS011;10839;43.206;23.550;2022-10-16T14:16:16;3.58;;;2.53;;
21360;SDS011;10839;43.206;23.550;2022-10-16T14:18:46;9.00;;;2.88;;
21360;SDS011;10839;43.206;23.550;2022-10-16T14:21:26;10.95;;;5.57;;
21360;SDS011;10839;43.206;23.550;2022-10-16T14:23:52;7.28;;;3.58;;
21360;SDS011;10839;43.206;23.550;2022-10-16T14:26:20;6.32;;;3.92;;
21360;SDS011;10839;43.206;23.550;2022-10-16T14:28:49;5.55;;;3.15;;
21360;SDS011;10839;43.206;23.550;2022-10-16T14:31:31;5.07;;;3.85;;
21360;SDS011;10839;43.206;23.550;2022-10-16T14:33:58;10.52;;;3.42;;
21360;SDS011;10839;43.206;23.550;2022-10-16T14:36:26;8.60;;;3.45;;
21360;SDS011;10839;43.206;23.550;2022-10-16T14:41:27;6.43;;;3.65;;
21360;SDS011;10839;43.206;23.550;2022-10-16T14:43:55;5.07;;;3.25;;
21360;SDS011;10839;43.206;23.550;2022-10-16T14:46:28;4.78;;;2.88;;
21360;SDS011;10839;43.206;23.550;2022-10-16T14:49:13;6.72;;;3.95;;
21360;SDS011;10839;43.206;23.550;2022-10-16T14:51:43;5.18;;;3.78;;
21360;SDS011;10839;43.206;23.550;2022-10-16T14:54:11;5.40;;;3.13;;
21360;SDS011;10839;43.206;23.550;2022-10-16T14:56:45;9.77;;;5.07;;
21360;SDS011;10839;43.206;23.550;2022-10-16T14:59:13;9.68;;;4.63;;
21360;SDS011;10839;43.206;23.550;2022-10-16T15:01:47;14.90;;;6.15;;
21360;SDS011;10839;43.206;23.550;2022-10-16T15:04:13;13.27;;;6.90;;
21360;SDS011;10839;43.206;23.550;2022-10-16T15:06:41;13.85;;;7.45;;
21360;SDS011;10839;43.206;23.550;2022-10-16T15:09:06;13.40;;;8.35;;
21360;SDS011;10839;43.206;23.550;2022-10-16T15:11:33;17.77;;;8.30;;
21360;SDS011;10839;43.206;23.550;2022-10-16T15:14:01;29.23;;;14.70;;
21360;SDS011;10839;43.206;23.550;2022-10-16T15:16:29;66.60;;;35.25;;
21360;SDS011;10839;43.206;23.550;2022-10-16T15:18:56;15.13;;;8.75;;
21360;SDS011;10839;43.206;23.550;2022-10-16T15:21:30;13.88;;;7.60;;
21360;SDS011;10839;43.206;23.550;2022-10-16T15:23:57;11.52;;;6.63;;
21360;SDS011;10839;43.206;23.550;2022-10-16T15:26:25;14.30;;;8.02;;
21360;SDS011;10839;43.206;23.550;2022-10-16T15:28:52;17.90;;;10.82;;
21360;SDS011;10839;43.206;23.550;2022-10-16T15:31:18;13.50;;;7.68;;
21360;SDS011;10839;43.206;23.550;2022-10-16T15:33:44;13.00;;;7.65;;
21360;SDS011;10839;43.206;23.550;2022-10-16T15:36:16;9.90;;;6.68;;
21360;SDS011;10839;43.206;23.550;2022-10-16T15:38:42;13.27;;;6.40;;
21360;SDS011;10839;43.206;23.550;2022-10-16T15:41:10;8.75;;;5.90;;
21360;SDS011;10839;43.206;23.550;2022-10-16T15:43:37;13.50;;;7.35;;
21360;SDS011;10839;43.206;23.550;2022-10-16T15:46:05;14.23;;;8.38;;
21360;SDS011;10839;43.206;23.550;2022-10-16T15:48:33;14.07;;;8.57;;
21360;SDS011;10839;43.206;23.550;2022-10-16T15:50:59;15.82;;;10.05;;
21360;SDS011;10839;43.206;23.550;2022-10-16T15:53:29;16.77;;;9.45;;
21360;SDS011;10839;43.206;23.550;2022-10-16T15:55:55;15.52;;;9.27;;
21360;SDS011;10839;43.206;23.550;2022-10-16T15:58:21;15.82;;;9.45;;
21360;SDS011;10839;43.206;23.550;2022-10-16T16:00:54;17.85;;;9.80;;
21360;SDS011;10839;43.206;23.550;2022-10-16T16:03:21;18.52;;;9.43;;
21360;SDS011;10839;43.206;23.550;2022-10-16T16:05:47;15.68;;;8.80;;
21360;SDS011;10839;43.206;23.550;2022-10-16T16:08:13;20.27;;;10.70;;
21360;SDS011;10839;43.206;23.550;2022-10-16T16:10:39;17.55;;;10.80;;
21360;SDS011;10839;43.206;23.550;2022-10-16T16:13:06;17.40;;;10.07;;
21360;SDS011;10839;43.206;23.550;2022-10-16T16:15:31;12.32;;;8.80;;
21360;SDS011;10839;43.206;23.550;2022-10-16T16:17:58;14.90;;;8.85;;
21360;SDS011;10839;43.206;23.550;2022-10-16T16:20:23;15.70;;;8.73;;
21360;SDS011;10839;43.206;23.550;2022-10-16T16:22:49;16.67;;;8.60;;
21360;SDS011;10839;43.206;23.550;2022-10-16T16:25:15;15.90;;;8.70;;
21360;SDS011;10839;43.206;23.550;2022-10-16T16:27:41;16.30;;;9.95;;
21360;SDS011;10839;43.206;23.550;2022-10-16T16:30:09;19.98;;;9.82;;
21360;SDS011;10839;43.206;23.550;2022-10-16T16:32:36;15.60;;;8.85;;
21360;SDS011;10839;43.206;23.550;2022-10-16T16:35:03;17.00;;;9.20;;
21360;SDS011;10839;43.206;23.550;2022-10-16T16:37:30;14.70;;;8.20;;
21360;SDS011;10839;43.206;23.550;2022-10-16T16:39:56;11.20;;;7.13;;
21360;SDS011;10839;43.206;23.550;2022-10-16T16:42:24;12.88;;;7.97;;